Time;durP1;ratioP1;P1;durP2;ratioP2;P2;SDS_P1;SDS_P2;PMS_P1;PMS_P2;Temp;Humidity;BMP_temperature;BMP_pressure;BME280_temperature;BME280_humidity;BME280_pressure;Samples;Min_cycle;Max_cycle;Signal;HPM_P1;HPM_P2
2021/10/25 00:01:01;;;;;;;4.27;3.43;;;;;;;;;;6100083;29;20200;-49
2021/10/25 00:04:22;;;;;;;7.33;4.13;;;;;;;;;;6095897;29;20276;-53
2021/10/25 00:07:43;;;;;;;10.23;4.23;;;;;;;;;;6096665;29;20567;-54
2021/10/25 00:11:03;;;;;;;5.33;4.57;;;;;;;;;;6098428;29;20220;-54
2021/10/25 00:14:26;;;;;;;8.33;5.63;;;;;;;;;;6096824;29;20224;-51
2021/10/25 00:17:46;;;;;;;6.80;3.73;;;;;;;;;;6093020;29;20233;-50
2021/10/25 00:21:07;;;;;;;4.70;4.23;;;;;;;;;;6096874;29;20575;-52
2021/10/25 00:24:27;;;;;;;4.37;3.93;;;;;;;;;;6097358;29;20252;-50
2021/10/25 00:27:48;;;;;;;6.20;4.27;;;;;;;;;;6104115;29;20737;-53
2021/10/25 00:31:09;;;;;;;5.53;3.63;;;;;;;;;;6097032;29;20237;-51
2021/10/25 00:34:30;;;;;;;5.33;4.50;;;;;;;;;;6094195;29;20229;-52
2021/10/25 00:37:50;;;;;;;6.13;4.20;;;;;;;;;;6095778;29;20232;-52
2021/10/25 00:41:12;;;;;;;7.23;4.97;;;;;;;;;;6098597;29;20208;-52
2021/10/25 00:44:33;;;;;;;4.97;4.03;;;;;;;;;;6094691;29;20232;-49
2021/10/25 00:47:56;;;;;;;5.17;4.40;;;;;;;;;;6093993;29;20232;-52
2021/10/25 00:51:17;;;;;;;4.43;3.57;;;;;;;;;;6093517;29;20310;-52
2021/10/25 00:54:38;;;;;;;6.30;5.23;;;;;;;;;;6096782;29;20233;-52
2021/10/25 00:57:58;;;;;;;6.80;4.23;;;;;;;;;;6094501;29;20566;-53
2021/10/25 01:01:18;;;;;;;8.07;5.17;;;;;;;;;;6094232;29;20193;-54
2021/10/25 01:04:41;;;;;;;5.20;4.17;;;;;;;;;;6095767;29;20514;-50
2021/10/25 01:08:02;;;;;;;4.93;4.17;;;;;;;;;;6096679;29;20926;-54
2021/10/25 01:11:23;;;;;;;4.90;4.40;;;;;;;;;;6091202;29;20323;-50
2021/10/25 01:14:44;;;;;;;5.87;4.07;;;;;;;;;;6084568;29;20228;-51
2021/10/25 01:18:04;;;;;;;6.10;4.87;;;;;;;;;;6096397;29;20489;-52
2021/10/25 01:21:27;;;;;;;7.27;4.60;;;;;;;;;;6099895;29;20209;-53
2021/10/25 01:24:47;;;;;;;6.37;4.67;;;;;;;;;;6097131;29;20228;-52
2021/10/25 01:28:08;;;;;;;4.67;4.23;;;;;;;;;;6090821;29;20334;-49
2021/10/25 01:31:28;;;;;;;5.37;4.00;;;;;;;;;;6097620;29;21634;-54
2021/10/25 01:34:49;;;;;;;6.60;4.70;;;;;;;;;;6095191;29;20279;-54
2021/10/25 01:38:11;;;;;;;8.23;4.40;;;;;;;;;;6097655;29;20232;-51
2021/10/25 01:41:31;;;;;;;6.97;3.83;;;;;;;;;;6091922;29;20193;-50
2021/10/25 01:44:55;;;;;;;8.73;4.07;;;;;;;;;;6095477;29;20599;-50
2021/10/25 01:48:15;;;;;;;5.70;4.00;;;;;;;;;;6097951;29;20513;-51
2021/10/25 01:51:36;;;;;;;5.23;4.20;;;;;;;;;;6098732;29;20196;-53
2021/10/25 01:54:58;;;;;;;4.87;4.20;;;;;;;;;;6095429;29;20267;-52
2021/10/25 01:58:20;;;;;;;5.30;4.63;;;;;;;;;;6086411;29;20594;-50
2021/10/25 02:01:40;;;;;;;6.77;3.93;;;;;;;;;;6098265;29;20236;-51
2021/10/25 02:05:02;;;;;;;7.23;4.60;;;;;;;;;;6100601;29;20236;-51
2021/10/25 02:08:23;;;;;;;6.87;5.37;;;;;;;;;;6094857;29;20258;-51
2021/10/25 02:11:49;;;;;;;5.37;4.10;;;;;;;;;;6099560;29;20323;-53
2021/10/25 02:15:10;;;;;;;8.13;4.33;;;;;;;;;;6101845;29;20236;-51
2021/10/25 02:18:31;;;;;;;6.43;4.37;;;;;;;;;;6094735;29;20319;-48
2021/10/25 02:21:53;;;;;;;5.53;3.97;;;;;;;;;;6099697;29;20205;-54
2021/10/25 02:25:15;;;;;;;5.07;3.77;;;;;;;;;;6102241;29;20256;-53
2021/10/25 02:28:38;;;;;;;4.77;4.27;;;;;;;;;;6094611;29;20232;-51
2021/10/25 02:31:58;;;;;;;5.40;4.30;;;;;;;;;;6098513;29;20205;-49
2021/10/25 02:35:19;;;;;;;5.50;4.07;;;;;;;;;;6082838;29;20311;-55
2021/10/25 02:38:40;;;;;;;8.27;5.27;;;;;;;;;;6078742;29;20241;-54
2021/10/25 02:42:01;;;;;;;4.87;4.33;;;;;;;;;;6103158;29;20290;-49
2021/10/25 02:45:26;;;;;;;8.50;5.73;;;;;;;;;;6094046;29;20228;-51
2021/10/25 02:48:46;;;;;;;6.23;4.97;;;;;;;;;;6102024;29;20509;-50
2021/10/25 02:52:09;;;;;;;6.60;4.50;;;;;;;;;;6100784;29;20197;-51
2021/10/25 02:55:33;;;;;;;7.17;4.50;;;;;;;;;;6100496;29;20328;-53
2021/10/25 02:58:55;;;;;;;6.07;4.17;;;;;;;;;;6100516;29;20248;-52
2021/10/25 03:02:19;;;;;;;8.00;5.20;;;;;;;;;;6100028;29;20299;-52
2021/10/25 03:05:41;;;;;;;7.93;4.57;;;;;;;;;;6097736;29;20651;-53
2021/10/25 03:09:02;;;;;;;6.80;5.30;;;;;;;;;;6096251;29;20236;-54
2021/10/25 03:12:23;;;;;;;7.00;4.57;;;;;;;;;;6086293;29;20509;-50
2021/10/25 03:15:47;;;;;;;5.83;4.60;;;;;;;;;;6107808;29;20189;-50
2021/10/25 03:19:08;;;;;;;5.27;4.60;;;;;;;;;;6097574;29;20232;-49
2021/10/25 03:22:29;;;;;;;6.00;4.37;;;;;;;;;;6102666;29;20206;-55
2021/10/25 03:25:49;;;;;;;7.50;4.47;;;;;;;;;;6097990;29;20602;-49
2021/10/25 03:29:10;;;;;;;7.47;4.77;;;;;;;;;;6095897;29;20894;-54
2021/10/25 03:32:32;;;;;;;5.23;4.73;;;;;;;;;;6098404;29;20208;-54
2021/10/25 03:36:13;;;;;;;5.90;4.80;;;;;;;;;;6099346;29;20185;-49
2021/10/25 03:39:36;;;;;;;5.53;5.03;;;;;;;;;;6081750;29;20233;-54
2021/10/25 03:42:58;;;;;;;8.60;5.73;;;;;;;;;;6094098;29;20248;-51
2021/10/25 03:46:24;;;;;;;8.37;3.93;;;;;;;;;;6102395;29;20538;-52
2021/10/25 03:49:48;;;;;;;5.67;5.00;;;;;;;;;;6099071;29;20339;-53
2021/10/25 03:53:35;;;;;;;9.97;6.10;;;;;;;;;;6105649;29;20236;-49
2021/10/25 03:57:17;;;;;;;10.97;5.53;;;;;;;;;;6101519;29;20200;-53
2021/10/25 04:27:28;;;;;;;8.83;5.97;;;;;;;;;;6103735;29;20220;-51
2021/10/25 04:30:54;;;;;;;5.97;5.40;;;;;;;;;;6097320;29;20204;-52
2021/10/25 04:34:16;;;;;;;6.27;4.63;;;;;;;;;;6102176;29;20240;-54
2021/10/25 04:37:45;;;;;;;6.43;5.83;;;;;;;;;;6103164;29;20240;-50
2021/10/25 04:41:09;;;;;;;5.93;5.23;;;;;;;;;;6097501;29;20213;-54
2021/10/25 04:44:31;;;;;;;9.10;5.50;;;;;;;;;;6099616;29;20241;-54
2021/10/25 04:47:54;;;;;;;6.93;5.70;;;;;;;;;;6095430;29;20769;-51
2021/10/25 04:51:34;;;;;;;6.13;5.03;;;;;;;;;;6099740;29;20201;-51
2021/10/25 04:55:08;;;;;;;8.87;5.63;;;;;;;;;;6094577;29;20233;-50
2021/10/25 04:58:29;;;;;;;5.70;5.20;;;;;;;;;;6099148;29;20236;-52
2021/10/25 05:01:51;;;;;;;7.87;5.80;;;;;;;;;;6095455;29;20229;-50
2021/10/25 05:05:12;;;;;;;6.17;5.53;;;;;;;;;;6096715;29;20240;-53
2021/10/25 05:08:32;;;;;;;6.53;5.20;;;;;;;;;;6097804;29;20260;-51
2021/10/25 05:11:53;;;;;;;7.47;6.70;;;;;;;;;;6090138;29;20216;-51
2021/10/25 05:15:14;;;;;;;7.57;6.13;;;;;;;;;;6085825;29;20236;-51
2021/10/25 05:18:36;;;;;;;9.93;5.63;;;;;;;;;;6099051;29;20563;-51
2021/10/25 05:21:56;;;;;;;10.87;6.20;;;;;;;;;;6094596;29;20464;-50
2021/10/25 05:25:17;;;;;;;8.37;5.70;;;;;;;;;;6096285;29;20229;-54
2021/10/25 05:28:39;;;;;;;8.97;5.90;;;;;;;;;;6096358;29;20689;-52
2021/10/25 05:32:01;;;;;;;8.63;5.70;;;;;;;;;;6094323;29;20228;-55
2021/10/25 05:35:24;;;;;;;11.47;6.57;;;;;;;;;;6093767;29;20331;-50
2021/10/25 05:38:45;;;;;;;7.57;6.03;;;;;;;;;;6096510;29;20232;-53
2021/10/25 05:42:08;;;;;;;12.13;8.93;;;;;;;;;;6093885;29;20204;-54
2021/10/25 05:45:29;;;;;;;10.43;7.73;;;;;;;;;;6091087;29;20638;-54
2021/10/25 05:48:52;;;;;;;13.43;9.55;;;;;;;;;;6094021;29;20784;-51
2021/10/25 05:52:15;;;;;;;14.00;7.90;;;;;;;;;;6088339;29;20205;-59
2021/10/25 05:55:37;;;;;;;10.67;6.93;;;;;;;;;;6090802;29;20221;-55
2021/10/25 05:58:58;;;;;;;10.73;7.47;;;;;;;;;;6089468;29;20232;-52
2021/10/25 06:02:25;;;;;;;11.17;8.30;;;;;;;;;;6092984;29;20232;-55
2021/10/25 06:05:59;;;;;;;9.90;8.77;;;;;;;;;;6094460;29;20217;-56
2021/10/25 06:09:21;;;;;;;8.83;7.10;;;;;;;;;;6089413;29;20232;-55
2021/10/25 06:12:46;;;;;;;14.97;8.50;;;;;;;;;;6096005;29;20235;-54
2021/10/25 06:16:13;;;;;;;7.97;6.90;;;;;;;;;;6088956;29;20430;-54
2021/10/25 06:19:36;;;;;;;10.03;7.20;;;;;;;;;;6092882;29;20229;-55
2021/10/25 06:22:58;;;;;;;9.17;6.93;;;;;;;;;;6093040;29;20636;-55
2021/10/25 06:26:23;;;;;;;9.67;6.97;;;;;;;;;;6090541;29;20221;-56
2021/10/25 06:29:44;;;;;;;8.33;6.87;;;;;;;;;;6096160;29;20614;-57
2021/10/25 06:33:07;;;;;;;8.27;6.87;;;;;;;;;;6095608;29;20237;-54
2021/10/25 06:36:58;;;;;;;11.10;6.90;;;;;;;;;;6075711;29;20194;-55
2021/10/25 06:40:28;;;;;;;8.97;6.13;;;;;;;;;;6078712;29;20303;-49
2021/10/25 06:43:54;;;;;;;8.93;6.40;;;;;;;;;;6079827;29;20232;-56
2021/10/25 06:47:15;;;;;;;6.53;5.97;;;;;;;;;;6096364;29;20208;-53
2021/10/25 06:50:39;;;;;;;8.30;6.53;;;;;;;;;;6093438;29;20316;-58
2021/10/25 06:54:02;;;;;;;7.60;6.20;;;;;;;;;;6079514;29;20642;-55
2021/10/25 06:57:24;;;;;;;9.20;7.10;;;;;;;;;;6098090;29;20205;-55
2021/10/25 07:00:47;;;;;;;6.50;5.77;;;;;;;;;;6097013;29;20236;-53
2021/10/25 07:04:08;;;;;;;8.10;5.97;;;;;;;;;;6095287;29;20631;-55
2021/10/25 07:07:31;;;;;;;9.97;8.53;;;;;;;;;;6093814;29;20205;-55
2021/10/25 07:10:52;;;;;;;6.17;5.33;;;;;;;;;;6094883;29;20216;-55
2021/10/25 07:14:16;;;;;;;7.87;6.40;;;;;;;;;;6080330;29;20237;-56
2021/10/25 07:17:43;;;;;;;7.37;6.50;;;;;;;;;;6094664;29;20464;-52
2021/10/25 07:21:33;;;;;;;6.07;5.47;;;;;;;;;;6094698;29;20201;-53
2021/10/25 08:09:01;;;;;;;16.77;8.50;;;;;;;;;;6096084;29;20357;-55
2021/10/25 08:12:25;;;;;;;8.53;7.63;;;;;;;;;;6094491;29;20583;-56
2021/10/25 08:15:46;;;;;;;13.00;6.03;;;;;;;;;;6084488;29;20216;-55
2021/10/25 08:19:13;;;;;;;10.50;6.40;;;;;;;;;;6095398;29;20236;-53
2021/10/25 08:22:34;;;;;;;9.13;7.50;;;;;;;;;;6085741;29;20221;-51
2021/10/25 08:25:55;;;;;;;11.40;7.97;;;;;;;;;;6095068;29;20216;-54
2021/10/25 08:29:19;;;;;;;14.80;7.60;;;;;;;;;;6096778;29;20241;-55
2021/10/25 08:32:59;;;;;;;10.27;7.83;;;;;;;;;;6096276;29;20252;-52
2021/10/25 08:36:22;;;;;;;11.80;7.63;;;;;;;;;;6096606;29;20197;-51
2021/10/25 08:40:01;;;;;;;8.93;7.00;;;;;;;;;;6088955;29;20856;-55
2021/10/25 08:43:26;;;;;;;10.00;7.40;;;;;;;;;;6093903;29;20228;-57
2021/10/25 08:46:54;;;;;;;9.43;6.93;;;;;;;;;;6091388;29;20238;-56
2021/10/25 08:50:16;;;;;;;10.33;7.97;;;;;;;;;;6090413;29;20319;-49
2021/10/25 08:53:37;;;;;;;11.20;7.97;;;;;;;;;;6094180;29;20232;-53
2021/10/25 08:56:58;;;;;;;8.40;6.77;;;;;;;;;;6096763;29;20240;-50
2021/10/25 09:00:34;;;;;;;7.60;6.70;;;;;;;;;;6088349;29;20225;-53
2021/10/25 09:04:18;;;;;;;7.00;6.30;;;;;;;;;;6093493;29;20236;-52
2021/10/25 09:07:51;;;;;;;6.97;6.37;;;;;;;;;;6095153;29;20256;-50
2021/10/25 09:11:18;;;;;;;6.73;5.77;;;;;;;;;;6096669;29;20196;-51
2021/10/25 09:15:15;;;;;;;7.37;6.00;;;;;;;;;;6094538;29;21030;-52
2021/10/25 09:18:39;;;;;;;11.40;7.00;;;;;;;;;;6087297;29;20239;-57
2021/10/25 09:22:08;;;;;;;9.20;6.70;;;;;;;;;;6088331;29;22685;-55
2021/10/25 09:25:31;;;;;;;6.35;5.63;;;;;;;;;;6094908;29;20247;-57
2021/10/25 09:28:53;;;;;;;9.90;6.50;;;;;;;;;;6091852;29;20319;-52
2021/10/25 09:32:15;;;;;;;6.75;6.00;;;;;;;;;;6096547;29;20536;-55
2021/10/25 09:36:00;;;;;;;8.68;5.80;;;;;;;;;;6094072;29;20537;-53
2021/10/25 09:39:40;;;;;;;8.13;6.22;;;;;;;;;;6089826;29;20251;-53
2021/10/25 09:43:19;;;;;;;5.75;5.10;;;;;;;;;;6091880;29;20295;-55
2021/10/25 09:50:19;;;;;;;9.18;6.15;;;;;;;;;;6074070;29;20227;-54
2021/10/25 09:53:42;;;;;;;10.55;6.28;;;;;;;;;;6083680;29;20508;-55
2021/10/25 09:57:10;;;;;;;11.13;6.47;;;;;;;;;;6073044;29;20197;-56
2021/10/25 10:00:36;;;;;;;6.55;5.68;;;;;;;;;;6066916;29;20224;-57
2021/10/25 10:03:57;;;;;;;8.35;5.78;;;;;;;;;;6085931;29;20233;-55
2021/10/25 10:07:37;;;;;;;5.78;5.10;;;;;;;;;;6089994;29;20232;-56
2021/10/25 10:11:14;;;;;;;7.03;5.38;;;;;;;;;;6094462;29;20197;-56
2021/10/25 10:14:36;;;;;;;6.25;5.60;;;;;;;;;;6091521;29;20221;-57
2021/10/25 10:18:00;;;;;;;7.45;5.28;;;;;;;;;;6089395;29;20228;-55
2021/10/25 10:21:27;;;;;;;8.18;5.55;;;;;;;;;;6093913;29;20236;-54
2021/10/25 10:24:52;;;;;;;6.82;5.97;;;;;;;;;;6095389;29;20232;-56
2021/10/25 10:28:13;;;;;;;8.02;5.85;;;;;;;;;;6100903;29;21015;-54
2021/10/25 10:31:35;;;;;;;8.15;5.80;;;;;;;;;;6101061;29;20296;-56
2021/10/25 10:35:17;;;;;;;7.20;5.65;;;;;;;;;;6092458;29;20228;-54
2021/10/25 10:39:00;;;;;;;9.90;6.15;;;;;;;;;;6092210;29;20228;-55
2021/10/25 10:42:43;;;;;;;6.45;5.72;;;;;;;;;;6096902;29;20240;-56
2021/10/25 10:46:13;;;;;;;6.82;6.18;;;;;;;;;;6095830;29;20225;-55
2021/10/25 10:49:39;;;;;;;5.93;5.38;;;;;;;;;;6098306;29;20231;-54
2021/10/25 10:53:02;;;;;;;6.80;6.03;;;;;;;;;;6097874;29;20232;-55
2021/10/25 10:56:26;;;;;;;6.78;5.80;;;;;;;;;;6086316;29;20646;-54
2021/10/25 10:59:50;;;;;;;8.07;6.37;;;;;;;;;;6093828;29;20241;-55
2021/10/25 11:03:18;;;;;;;12.40;8.13;;;;;;;;;;6087472;29;20232;-55
2021/10/25 11:06:40;;;;;;;9.47;7.10;;;;;;;;;;6094831;29;20659;-56
2021/10/25 11:10:01;;;;;;;6.50;5.77;;;;;;;;;;6097314;29;20228;-51
2021/10/25 11:13:22;;;;;;;7.50;6.20;;;;;;;;;;6094997;29;20603;-61
2021/10/25 11:16:51;;;;;;;9.43;7.03;;;;;;;;;;6098156;29;20666;-64
2021/10/25 11:20:12;;;;;;;7.90;6.97;;;;;;;;;;6099181;29;20235;-63
2021/10/25 11:23:38;;;;;;;10.20;6.47;;;;;;;;;;6092552;29;20323;-59
2021/10/25 11:26:59;;;;;;;6.77;5.80;;;;;;;;;;6106075;29;20228;-53
2021/10/25 11:30:20;;;;;;;6.17;5.00;;;;;;;;;;6099368;29;20509;-51
2021/10/25 11:33:45;;;;;;;8.67;5.73;;;;;;;;;;6095087;29;20240;-50
2021/10/25 11:37:08;;;;;;;6.37;5.47;;;;;;;;;;6098987;29;20221;-51
2021/10/25 11:40:30;;;;;;;9.13;6.87;;;;;;;;;;6093251;29;20224;-52
2021/10/25 11:43:51;;;;;;;9.03;6.33;;;;;;;;;;6100609;29;20233;-50
2021/10/25 11:47:19;;;;;;;10.17;6.23;;;;;;;;;;6094556;29;20678;-50
2021/10/25 11:50:40;;;;;;;15.57;6.07;;;;;;;;;;6098388;29;20220;-52
2021/10/25 11:54:00;;;;;;;9.83;6.60;;;;;;;;;;6097133;29;20217;-56
2021/10/25 11:57:22;;;;;;;9.23;6.23;;;;;;;;;;6099094;29;20236;-55
2021/10/25 12:00:44;;;;;;;7.87;6.90;;;;;;;;;;6087440;29;20480;-52
2021/10/25 12:04:31;;;;;;;7.03;5.57;;;;;;;;;;6098724;29;20244;-56
2021/10/25 12:07:53;;;;;;;8.13;5.90;;;;;;;;;;6093418;29;20567;-55
2021/10/25 12:11:14;;;;;;;5.87;4.90;;;;;;;;;;6092538;29;20216;-56
2021/10/25 12:14:38;;;;;;;9.30;6.17;;;;;;;;;;6095974;29;20503;-55
2021/10/25 12:18:00;;;;;;;10.53;5.60;;;;;;;;;;6097794;29;20584;-56
2021/10/25 12:21:31;;;;;;;6.57;5.17;;;;;;;;;;6091949;29;20209;-52
2021/10/25 12:24:52;;;;;;;6.33;5.53;;;;;;;;;;6096163;29;20243;-56
2021/10/25 12:28:14;;;;;;;8.57;5.67;;;;;;;;;;6095137;29;20268;-56
2021/10/25 12:31:36;;;;;;;9.17;6.20;;;;;;;;;;6085455;29;20228;-55
2021/10/25 12:34:58;;;;;;;10.10;6.97;;;;;;;;;;6076684;29;20233;-54
2021/10/25 12:38:19;;;;;;;7.63;5.93;;;;;;;;;;6070036;29;20244;-56
2021/10/25 12:41:47;;;;;;;7.97;5.93;;;;;;;;;;6073627;29;20242;-54
2021/10/25 12:45:14;;;;;;;7.33;5.70;;;;;;;;;;6071979;29;20363;-56
2021/10/25 12:48:42;;;;;;;7.90;5.37;;;;;;;;;;6072876;29;20240;-57
2021/10/25 12:52:03;;;;;;;8.53;6.77;;;;;;;;;;6047077;29;20266;-58
2021/10/25 12:55:24;;;;;;;8.27;4.97;;;;;;;;;;6033216;29;20252;-52
2021/10/25 12:58:44;;;;;;;7.97;6.10;;;;;;;;;;6071909;29;20225;-57
2021/10/25 13:02:09;;;;;;;13.80;6.33;;;;;;;;;;6070771;29;20247;-54
2021/10/25 13:05:34;;;;;;;5.80;5.30;;;;;;;;;;6066874;29;20217;-52
2021/10/25 13:08:59;;;;;;;8.67;5.70;;;;;;;;;;6069922;29;20228;-57
2021/10/25 13:12:20;;;;;;;8.70;5.30;;;;;;;;;;6074489;29;20217;-54
2021/10/25 13:15:42;;;;;;;6.87;5.37;;;;;;;;;;6075233;29;20746;-53
2021/10/25 13:19:03;;;;;;;9.00;5.67;;;;;;;;;;6074015;29;20623;-57
2021/10/25 13:22:25;;;;;;;6.80;4.90;;;;;;;;;;6074097;29;20216;-58
2021/10/25 13:25:45;;;;;;;6.37;5.17;;;;;;;;;;6077196;29;20208;-56
2021/10/25 13:29:06;;;;;;;9.80;6.17;;;;;;;;;;6078101;29;20236;-55
2021/10/25 13:32:26;;;;;;;7.57;6.30;;;;;;;;;;6077383;29;20296;-52
2021/10/25 13:35:47;;;;;;;7.17;5.87;;;;;;;;;;6073894;29;20222;-52
2021/10/25 13:39:10;;;;;;;8.90;6.07;;;;;;;;;;6069446;29;20233;-55
2021/10/25 13:42:31;;;;;;;7.70;5.70;;;;;;;;;;6092863;29;20593;-54
2021/10/25 13:45:51;;;;;;;8.37;7.20;;;;;;;;;;6095618;29;20586;-55
2021/10/25 13:49:12;;;;;;;7.90;5.80;;;;;;;;;;6092736;29;20251;-55
2021/10/25 13:52:34;;;;;;;6.00;5.40;;;;;;;;;;6080250;29;20570;-55
2021/10/25 13:55:58;;;;;;;9.80;6.10;;;;;;;;;;6087282;29;20213;-55
2021/10/25 13:59:18;;;;;;;7.93;6.27;;;;;;;;;;6077180;29;20232;-54
2021/10/25 14:02:40;;;;;;;6.60;5.07;;;;;;;;;;6078511;29;20252;-53
2021/10/25 14:06:04;;;;;;;11.97;6.50;;;;;;;;;;6078492;29;20288;-52
2021/10/25 14:09:25;;;;;;;7.07;5.97;;;;;;;;;;6082034;29;20336;-52
2021/10/25 14:12:48;;;;;;;9.93;6.80;;;;;;;;;;6103443;29;20240;-53
2021/10/25 14:16:21;;;;;;;7.57;6.77;;;;;;;;;;6097727;29;20471;-54
2021/10/25 14:19:41;;;;;;;7.60;5.77;;;;;;;;;;6072619;29;20327;-55
2021/10/25 14:23:02;;;;;;;7.03;5.23;;;;;;;;;;6059508;29;20232;-54
2021/10/25 14:26:23;;;;;;;5.97;5.37;;;;;;;;;;6089294;29;20373;-54
2021/10/25 14:29:45;;;;;;;8.83;6.27;;;;;;;;;;6083709;29;20236;-54
2021/10/25 14:33:07;;;;;;;8.60;6.80;;;;;;;;;;6092543;29;20323;-54
2021/10/25 14:36:27;;;;;;;17.07;8.57;;;;;;;;;;6098273;29;20205;-54
2021/10/25 14:39:48;;;;;;;11.17;7.17;;;;;;;;;;6089023;29;20713;-53
2021/10/25 14:43:14;;;;;;;11.27;6.53;;;;;;;;;;6099612;29;20236;-55
2021/10/25 14:46:48;;;;;;;8.17;5.93;;;;;;;;;;6096658;29;20197;-52
2021/10/25 14:53:49;;;;;;;7.73;5.20;;;;;;;;;;6099120;29;20229;-53
2021/10/25 14:57:11;;;;;;;7.50;6.40;;;;;;;;;;6096510;29;20514;-55
2021/10/25 15:00:32;;;;;;;6.33;5.73;;;;;;;;;;6090707;29;20248;-55
2021/10/25 15:03:54;;;;;;;6.37;4.70;;;;;;;;;;6096143;29;20812;-54
2021/10/25 15:07:20;;;;;;;5.40;4.90;;;;;;;;;;6092150;29;20197;-54
2021/10/25 15:10:40;;;;;;;9.53;6.37;;;;;;;;;;6087836;29;20212;-57
2021/10/25 15:14:01;;;;;;;8.83;6.07;;;;;;;;;;6090766;29;20265;-51
2021/10/25 15:17:21;;;;;;;6.33;5.47;;;;;;;;;;6072437;29;20209;-47
2021/10/25 15:20:43;;;;;;;6.73;5.70;;;;;;;;;;6078130;29;20312;-51
2021/10/25 15:24:04;;;;;;;8.10;5.40;;;;;;;;;;6090964;29;20834;-54
2021/10/25 15:27:25;;;;;;;6.63;5.40;;;;;;;;;;6100958;29;20200;-54
2021/10/25 15:30:45;;;;;;;8.70;5.60;;;;;;;;;;6091675;29;20213;-52
2021/10/25 15:34:06;;;;;;;9.73;5.23;;;;;;;;;;6090345;29;20534;-53
2021/10/25 15:37:29;;;;;;;8.73;5.57;;;;;;;;;;6090832;29;20472;-48
2021/10/25 15:40:49;;;;;;;8.07;5.20;;;;;;;;;;6097072;29;20204;-51
2021/10/25 15:44:10;;;;;;;5.77;5.00;;;;;;;;;;6089108;29;20518;-51
2021/10/25 15:47:30;;;;;;;9.60;6.00;;;;;;;;;;6095236;29;20205;-52
2021/10/25 15:50:51;;;;;;;6.43;5.10;;;;;;;;;;6098037;29;20228;-52
2021/10/25 15:54:13;;;;;;;7.43;4.33;;;;;;;;;;6094165;29;20650;-49
2021/10/25 15:57:34;;;;;;;7.13;5.90;;;;;;;;;;6095542;29;20208;-53
2021/10/25 16:00:55;;;;;;;5.73;4.90;;;;;;;;;;6088030;29;20343;-56
2021/10/25 16:04:16;;;;;;;8.67;4.97;;;;;;;;;;6093815;29;20450;-51
2021/10/25 16:07:36;;;;;;;5.47;4.93;;;;;;;;;;6101891;29;20223;-52
2021/10/25 16:10:59;;;;;;;5.70;5.13;;;;;;;;;;6089292;29;20570;-51
2021/10/25 16:14:19;;;;;;;5.60;4.50;;;;;;;;;;6084724;29;20233;-54
2021/10/25 16:17:40;;;;;;;6.50;5.00;;;;;;;;;;6081388;29;20260;-50
2021/10/25 16:21:00;;;;;;;11.17;6.40;;;;;;;;;;6098971;29;20412;-52
2021/10/25 16:24:22;;;;;;;6.43;4.83;;;;;;;;;;6097057;29;20260;-53
2021/10/25 16:27:44;;;;;;;7.33;5.63;;;;;;;;;;6091257;29;20240;-51
2021/10/25 16:31:04;;;;;;;7.60;5.17;;;;;;;;;;6085612;29;20205;-52
2021/10/25 16:34:25;;;;;;;7.20;5.20;;;;;;;;;;6085097;29;20240;-53
2021/10/25 16:37:46;;;;;;;6.73;5.80;;;;;;;;;;6078522;29;20245;-51
2021/10/25 16:41:06;;;;;;;8.07;5.47;;;;;;;;;;6082906;29;20224;-55
2021/10/25 16:44:28;;;;;;;7.00;4.67;;;;;;;;;;6077300;29;20236;-52
2021/10/25 16:47:49;;;;;;;8.60;4.77;;;;;;;;;;6079739;29;20343;-53
2021/10/25 16:51:13;;;;;;;6.53;4.97;;;;;;;;;;6080523;29;20312;-51
2021/10/25 16:55:00;;;;;;;6.37;4.53;;;;;;;;;;6083496;29;20236;-54
2021/10/25 17:05:50;;;;;;;8.13;4.60;;;;;;;;;;6088299;29;20685;-51
2021/10/25 17:09:15;;;;;;;6.07;4.10;;;;;;;;;;6079701;29;20266;-52
2021/10/25 17:12:36;;;;;;;8.80;4.93;;;;;;;;;;6074200;29;20658;-53
2021/10/25 17:15:57;;;;;;;8.73;4.63;;;;;;;;;;6081717;29;20236;-54
2021/10/25 17:19:19;;;;;;;5.70;5.07;;;;;;;;;;6093069;29;20239;-52
2021/10/25 17:22:41;;;;;;;7.10;4.73;;;;;;;;;;6081739;29;20259;-53
2021/10/25 17:26:01;;;;;;;6.03;4.40;;;;;;;;;;6086111;29;21428;-53
2021/10/25 17:29:22;;;;;;;6.33;5.33;;;;;;;;;;6094271;29;20319;-54
2021/10/25 17:32:43;;;;;;;5.40;4.90;;;;;;;;;;6091612;29;20371;-55
2021/10/25 17:36:05;;;;;;;6.20;4.80;;;;;;;;;;6094194;29;20193;-54
2021/10/25 17:39:25;;;;;;;11.70;5.40;;;;;;;;;;6083424;29;20237;-55
2021/10/25 17:42:51;;;;;;;7.10;6.23;;;;;;;;;;6092388;29;20240;-53
2021/10/25 17:46:11;;;;;;;7.03;4.67;;;;;;;;;;6091117;29;20295;-55
2021/10/25 17:49:32;;;;;;;5.90;5.40;;;;;;;;;;6076684;29;20228;-51
2021/10/25 17:52:54;;;;;;;10.07;6.03;;;;;;;;;;6091964;29;20245;-53
2021/10/25 17:56:15;;;;;;;6.43;5.67;;;;;;;;;;6091909;29;20595;-52
2021/10/25 17:59:36;;;;;;;7.53;5.33;;;;;;;;;;6080552;29;20255;-50
2021/10/25 18:02:59;;;;;;;7.57;5.37;;;;;;;;;;6083911;29;20506;-55
2021/10/25 18:06:20;;;;;;;9.07;6.10;;;;;;;;;;6088144;29;20212;-55
2021/10/25 18:09:42;;;;;;;7.47;5.97;;;;;;;;;;6085736;29;20550;-55
2021/10/25 18:13:03;;;;;;;8.87;6.57;;;;;;;;;;6094475;29;20232;-55
2021/10/25 18:16:24;;;;;;;8.07;5.30;;;;;;;;;;6096914;29;20197;-53
2021/10/25 18:19:44;;;;;;;8.77;6.27;;;;;;;;;;6098549;29;20221;-50
2021/10/25 18:23:05;;;;;;;6.70;5.93;;;;;;;;;;6086376;29;21042;-55
2021/10/25 18:26:27;;;;;;;4.93;4.53;;;;;;;;;;6095712;29;20705;-54
2021/10/25 18:29:49;;;;;;;5.27;4.10;;;;;;;;;;6089491;29;20225;-52
2021/10/25 18:33:09;;;;;;;8.20;5.43;;;;;;;;;;6091781;29;20233;-53
2021/10/25 18:36:30;;;;;;;5.80;5.23;;;;;;;;;;6096386;29;20308;-54
2021/10/25 18:39:50;;;;;;;8.73;5.83;;;;;;;;;;6096186;29;20245;-55
2021/10/25 18:43:12;;;;;;;8.13;6.50;;;;;;;;;;6099471;29;20239;-53
2021/10/25 18:46:33;;;;;;;6.67;5.47;;;;;;;;;;6094563;29;21322;-56
2021/10/25 18:49:53;;;;;;;7.60;5.83;;;;;;;;;;6092116;29;20236;-56
2021/10/25 18:53:14;;;;;;;9.40;6.20;;;;;;;;;;6096179;29;20520;-51
2021/10/25 18:56:35;;;;;;;10.00;6.23;;;;;;;;;;6096792;29;20201;-53
2021/10/25 18:59:57;;;;;;;6.60;4.83;;;;;;;;;;6099738;29;20264;-54
2021/10/25 19:03:18;;;;;;;6.00;4.90;;;;;;;;;;6099238;29;20232;-54
2021/10/25 19:06:38;;;;;;;8.77;5.93;;;;;;;;;;6098187;29;20473;-56
2021/10/25 19:09:59;;;;;;;6.73;4.80;;;;;;;;;;6096180;29;20237;-55
2021/10/25 19:13:19;;;;;;;7.30;5.23;;;;;;;;;;6096204;29;20224;-55
2021/10/25 19:16:42;;;;;;;7.40;5.70;;;;;;;;;;6094375;29;20719;-58
2021/10/25 19:20:03;;;;;;;6.83;4.50;;;;;;;;;;6094517;29;20241;-54
2021/10/25 19:23:23;;;;;;;6.30;4.67;;;;;;;;;;6085221;29;20686;-56
2021/10/25 19:26:44;;;;;;;5.07;4.20;;;;;;;;;;6092748;29;20232;-52
2021/10/25 19:30:06;;;;;;;5.43;4.93;;;;;;;;;;6097607;29;20237;-57
2021/10/25 19:33:28;;;;;;;9.03;5.33;;;;;;;;;;6098026;29;20602;-54
2021/10/25 19:36:49;;;;;;;6.37;4.63;;;;;;;;;;6096996;29;20224;-54
2021/10/25 19:40:10;;;;;;;8.60;4.90;;;;;;;;;;6094156;29;20766;-51
2021/10/25 19:43:31;;;;;;;7.07;4.40;;;;;;;;;;6093146;29;20236;-55
2021/10/25 19:46:53;;;;;;;5.73;4.70;;;;;;;;;;6092624;29;20193;-55
2021/10/25 19:50:16;;;;;;;7.40;4.53;;;;;;;;;;6095867;29;20232;-56
2021/10/25 19:53:37;;;;;;;5.60;5.00;;;;;;;;;;6099682;29;20240;-57
2021/10/25 19:56:57;;;;;;;5.33;4.40;;;;;;;;;;6099861;29;20799;-57
2021/10/25 20:00:18;;;;;;;5.67;4.73;;;;;;;;;;6098061;29;20619;-51
2021/10/25 20:03:38;;;;;;;5.17;4.67;;;;;;;;;;6097502;29;20268;-55
2021/10/25 20:07:00;;;;;;;5.70;5.10;;;;;;;;;;6099449;29;20236;-57
2021/10/25 20:10:22;;;;;;;8.03;5.53;;;;;;;;;;6098392;29;20225;-55
2021/10/25 20:13:43;;;;;;;5.93;4.40;;;;;;;;;;6091301;29;20240;-56
2021/10/25 20:17:04;;;;;;;6.73;5.07;;;;;;;;;;6098234;29;20205;-57
2021/10/25 20:20:24;;;;;;;5.57;5.07;;;;;;;;;;6085424;29;20220;-57
2021/10/25 20:23:46;;;;;;;5.77;4.67;;;;;;;;;;6096629;29;20942;-55
2021/10/25 20:27:07;;;;;;;7.43;5.27;;;;;;;;;;6095849;29;20213;-56
2021/10/25 20:30:28;;;;;;;8.47;5.43;;;;;;;;;;6095257;29;20224;-57
2021/10/25 20:33:49;;;;;;;7.57;4.87;;;;;;;;;;6095763;29;20693;-55
2021/10/25 20:37:09;;;;;;;11.67;5.87;;;;;;;;;;6098832;29;20209;-55
2021/10/25 20:40:31;;;;;;;5.93;4.70;;;;;;;;;;6093399;29;20213;-54
2021/10/25 20:43:52;;;;;;;6.17;4.93;;;;;;;;;;6085296;29;20233;-56
2021/10/25 20:47:12;;;;;;;5.13;4.43;;;;;;;;;;6090011;29;20209;-53
2021/10/25 20:50:33;;;;;;;6.40;4.10;;;;;;;;;;6087727;29;20616;-57
2021/10/25 20:53:53;;;;;;;7.30;4.97;;;;;;;;;;6088185;29;20232;-54
2021/10/25 20:57:15;;;;;;;5.37;4.43;;;;;;;;;;6091290;29;20347;-55
2021/10/25 21:00:36;;;;;;;7.07;4.33;;;;;;;;;;6091476;29;20228;-56
2021/10/25 21:03:58;;;;;;;7.73;5.53;;;;;;;;;;6088208;29;20220;-49
2021/10/25 21:07:19;;;;;;;5.77;5.27;;;;;;;;;;6093561;29;20205;-56
2021/10/25 21:10:40;;;;;;;5.60;4.70;;;;;;;;;;6092149;29;20235;-53
2021/10/25 21:14:02;;;;;;;8.30;4.87;;;;;;;;;;6087304;29;20240;-56
2021/10/25 21:17:22;;;;;;;9.53;5.17;;;;;;;;;;6085653;29;20224;-55
2021/10/25 21:20:43;;;;;;;6.23;4.40;;;;;;;;;;6094737;29;20201;-56
2021/10/25 21:24:04;;;;;;;6.00;4.33;;;;;;;;;;6089523;29;20248;-57
2021/10/25 21:27:24;;;;;;;5.77;4.40;;;;;;;;;;6089432;29;20208;-55
2021/10/25 21:30:46;;;;;;;7.53;4.93;;;;;;;;;;6090156;29;20213;-57
2021/10/25 21:34:07;;;;;;;5.23;4.70;;;;;;;;;;6092360;29;20236;-55
2021/10/25 21:37:27;;;;;;;4.27;3.87;;;;;;;;;;6088452;29;20201;-55
2021/10/25 21:40:47;;;;;;;5.87;4.63;;;;;;;;;;6088553;29;20280;-54